createdAt,value
2022-08-08T00:04:16.340Z,100.00
2022-08-08T00:09:33.109Z,100.00
2022-08-08T00:14:48.311Z,100.00
2022-08-08T00:20:07.731Z,100.00
2022-08-08T00:25:28.615Z,100.00
2022-08-08T00:31:00.702Z,100.00
2022-08-08T00:36:25.616Z,100.00
2022-08-08T00:42:09.077Z,100.00
2022-08-08T00:48:04.917Z,100.00
2022-08-08T00:53:13.922Z,100.00
2022-08-08T00:58:37.153Z,100.00
2022-08-08T01:04:02.026Z,100.00
2022-08-08T01:09:35.669Z,100.00
2022-08-08T01:15:37.112Z,100.00
2022-08-08T01:21:09.467Z,100.00
2022-08-08T01:26:49.213Z,100.00
2022-08-08T01:32:43.428Z,100.00
2022-08-08T01:38:27.545Z,100.00
2022-08-08T01:43:54.347Z,100.00
2022-08-08T01:49:23.429Z,100.00
2022-08-08T01:55:45.038Z,100.00
2022-08-08T02:00:48.924Z,100.00
2022-08-08T02:06:32.552Z,100.00
2022-08-08T02:11:52.995Z,100.00
2022-08-08T02:17:18.098Z,100.00
2022-08-08T02:22:45.992Z,100.00
2022-08-08T02:28:09.415Z,100.00
2022-08-08T02:34:00.606Z,100.00
2022-08-08T02:39:41.137Z,100.00
2022-08-08T02:44:38.351Z,100.00
2022-08-08T02:50:18.032Z,100.00
2022-08-08T02:55:25.477Z,100.00
2022-08-08T03:00:55.665Z,100.00
2022-08-08T03:06:34.314Z,100.00
2022-08-08T03:12:02.504Z,100.00
2022-08-08T03:17:20.072Z,100.00
2022-08-08T03:22:38.814Z,100.00
2022-08-08T03:27:56.776Z,100.00
2022-08-08T03:33:54.995Z,100.00
2022-08-08T03:38:54.881Z,100.00
2022-08-08T03:44:05.689Z,100.00
2022-08-08T03:49:57.582Z,100.00
2022-08-08T03:55:02.280Z,100.00
2022-08-08T04:00:20.015Z,100.00
2022-08-08T04:05:36.694Z,100.00
2022-08-08T04:10:59.670Z,100.00
2022-08-08T04:16:05.651Z,100.00
2022-08-08T04:21:20.020Z,100.00
2022-08-08T04:26:40.070Z,100.00
2022-08-08T04:32:00.067Z,100.00
2022-08-08T04:37:09.834Z,100.00
2022-08-08T04:42:15.691Z,100.00
2022-08-08T04:47:19.639Z,100.00
2022-08-08T04:52:25.388Z,100.00
2022-08-08T04:57:38.867Z,100.00
2022-08-08T05:02:43.342Z,100.00
2022-08-08T05:07:47.259Z,100.00
2022-08-08T05:12:59.987Z,100.00
2022-08-08T05:18:08.084Z,100.00
2022-08-08T05:23:18.101Z,100.00
2022-08-08T05:28:56.604Z,98.51
2022-08-08T05:33:49.462Z,92.94
2022-08-08T05:39:00.441Z,90.59
2022-08-08T05:44:34.774Z,87.19
2022-08-08T05:49:38.910Z,87.15
2022-08-08T05:55:03.311Z,87.65
2022-08-08T06:00:25.424Z,86.47
2022-08-08T06:05:36.361Z,85.31
2022-08-08T06:10:51.882Z,83.35
2022-08-08T06:16:09.246Z,75.85
2022-08-08T06:21:51.864Z,57.94
2022-08-08T06:27:11.064Z,46.96
2022-08-08T06:32:29.024Z,42.54
2022-08-08T06:37:37.679Z,38.99
2022-08-08T06:43:06.620Z,37.05
2022-08-08T06:48:22.411Z,36.49
2022-08-08T06:53:39.554Z,35.95
2022-08-08T06:58:45.620Z,37.81
2022-08-08T07:04:36.349Z,36.77
2022-08-08T07:09:45.401Z,38.99
2022-08-08T07:15:05.408Z,41.02
2022-08-08T07:20:12.433Z,41.64
2022-08-08T07:25:29.379Z,43.52
2022-08-08T07:30:39.073Z,45.95
2022-08-08T07:35:45.201Z,44.80
2022-08-08T07:40:55.972Z,38.81
2022-08-08T07:46:23.755Z,40.30
2022-08-08T07:51:45.030Z,39.39
2022-08-08T07:57:00.266Z,38.17
2022-08-08T08:02:35.953Z,42.41
2022-08-08T08:07:38.627Z,41.45
2022-08-08T08:12:54.395Z,41.55
2022-08-08T08:18:01.621Z,39.45
2022-08-08T08:23:06.118Z,36.95
2022-08-08T08:28:09.892Z,35.20
2022-08-08T08:33:15.796Z,36.44
2022-08-08T08:38:19.920Z,32.01
2022-08-08T08:43:33.201Z,32.55
2022-08-08T08:48:49.144Z,31.60
2022-08-08T08:53:59.959Z,29.61
2022-08-08T08:59:09.090Z,29.80
2022-08-08T09:04:31.208Z,29.60
2022-08-08T09:09:57.244Z,29.06
2022-08-08T09:15:06.703Z,29.31
2022-08-08T09:21:57.058Z,33.53
2022-08-08T09:25:54.503Z,30.52
2022-08-08T09:31:14.904Z,28.67
2022-08-08T09:36:28.617Z,29.03
2022-08-08T09:41:54.763Z,28.78
2022-08-08T09:48:02.025Z,28.43
2022-08-08T09:52:55.427Z,27.40
2022-08-08T09:58:06.602Z,28.10
2022-08-08T10:03:15.404Z,27.05
2022-08-08T10:08:34.626Z,27.56
2022-08-08T10:13:38.389Z,26.44
2022-08-08T10:24:28.600Z,29.40
2022-08-08T10:30:01.138Z,29.13
2022-08-08T10:35:11.540Z,28.33
2022-08-08T10:40:32.267Z,27.13
2022-08-08T10:45:56.841Z,26.51
2022-08-08T10:51:12.235Z,25.14
2022-08-08T10:56:27.699Z,25.31
2022-08-08T11:01:39.437Z,26.72
2022-08-08T11:06:47.317Z,27.82
2022-08-08T11:12:05.994Z,25.85
2022-08-08T11:17:58.807Z,25.29
2022-08-08T11:22:42.628Z,24.32
2022-08-08T11:27:48.937Z,25.39
2022-08-08T11:32:57.701Z,26.14
2022-08-08T11:38:37.030Z,24.74
2022-08-08T11:43:39.335Z,23.60
2022-08-08T11:48:47.145Z,22.78
2022-08-08T11:53:59.197Z,25.33
2022-08-08T11:59:09.832Z,23.03
2022-08-08T12:04:12.530Z,22.06
2022-08-08T12:09:16.869Z,23.29
2022-08-08T12:14:29.298Z,25.49
2022-08-08T12:19:51.297Z,26.28
2022-08-08T12:24:56.585Z,27.56
2022-08-08T12:30:01.853Z,27.22
2022-08-08T12:35:17.549Z,27.51
2022-08-08T12:40:22.991Z,27.39
2022-08-08T12:45:58.836Z,28.03
2022-08-08T12:50:58.557Z,28.52
2022-08-08T12:56:18.932Z,28.80
2022-08-08T13:01:38.797Z,29.50
2022-08-08T13:07:00.937Z,29.62
2022-08-08T13:12:47.146Z,29.19
2022-08-08T13:18:07.607Z,28.25
2022-08-08T13:23:36.064Z,29.69
2022-08-08T13:28:42.039Z,30.70
2022-08-08T13:33:49.740Z,30.29
2022-08-08T13:38:52.830Z,29.85
2022-08-08T13:43:58.256Z,30.29
2022-08-08T13:50:33.430Z,31.44
2022-08-08T13:54:31.270Z,31.18
2022-08-08T13:59:39.199Z,31.75
2022-08-08T14:05:09.563Z,31.18
2022-08-08T14:10:33.713Z,30.19
2022-08-08T14:15:50.079Z,31.16
2022-08-08T14:21:03.005Z,31.47
2022-08-08T14:26:10.907Z,32.05
2022-08-08T14:31:20.210Z,31.50
2022-08-08T14:36:54.392Z,32.14
2022-08-08T14:42:07.540Z,31.44
2022-08-08T14:47:16.577Z,31.52
2022-08-08T14:52:23.239Z,31.43
2022-08-08T14:58:02.541Z,30.06
2022-08-08T15:02:59.093Z,30.48
2022-08-08T15:08:12.813Z,29.52
2022-08-08T15:13:25.242Z,30.39
2022-08-08T15:18:38.021Z,31.43
2022-08-08T15:23:42.557Z,32.32
2022-08-08T15:28:45.596Z,34.37
2022-08-08T15:33:58.845Z,32.88
2022-08-08T15:39:02.370Z,32.27
2022-08-08T15:44:05.578Z,32.31
2022-08-08T15:49:10.008Z,29.80
2022-08-08T15:54:18.372Z,30.68
2022-08-08T15:59:21.391Z,30.41
2022-08-08T16:04:43.758Z,31.76
2022-08-08T16:13:03.836Z,32.26
2022-08-08T16:15:12.570Z,33.66
2022-08-08T16:20:20.120Z,34.53
2022-08-08T16:25:24.373Z,34.38
2022-08-08T16:30:45.489Z,37.12
2022-08-08T16:35:49.602Z,33.89
2022-08-08T16:40:52.485Z,40.56
2022-08-08T16:46:36.690Z,42.10
2022-08-08T16:55:05.349Z,42.60
2022-08-08T16:56:48.222Z,39.57
2022-08-08T17:02:03.330Z,36.14
2022-08-08T17:07:05.981Z,42.46
2022-08-08T17:12:09.767Z,41.83
2022-08-08T17:17:41.635Z,43.99
2022-08-08T17:22:43.113Z,44.91
2022-08-08T17:27:47.512Z,47.10
2022-08-08T17:34:30.401Z,50.13
2022-08-08T17:38:12.525Z,54.50
2022-08-08T17:43:16.940Z,56.13
2022-08-08T17:48:30.917Z,58.58
2022-08-08T17:53:43.230Z,62.91
2022-08-08T17:58:46.498Z,64.15
2022-08-08T18:03:52.594Z,67.07
2022-08-08T18:08:55.447Z,66.86
2022-08-08T18:13:59.166Z,72.27
2022-08-08T18:19:11.250Z,71.43
2022-08-08T18:24:21.330Z,72.85
2022-08-08T18:29:33.698Z,75.61
2022-08-08T18:34:40.397Z,69.39
2022-08-08T18:39:45.163Z,68.73
2022-08-08T18:45:09.159Z,68.05
2022-08-08T18:50:27.168Z,68.58
2022-08-08T18:55:29.581Z,69.77
2022-08-08T19:00:50.212Z,72.40
2022-08-08T19:05:52.683Z,72.54
2022-08-08T19:10:59.871Z,73.74
2022-08-08T19:16:05.886Z,74.11
2022-08-08T19:21:29.089Z,73.21
2022-08-08T19:26:37.775Z,73.99
2022-08-08T19:31:46.848Z,74.07
2022-08-08T19:36:55.373Z,74.38
2022-08-08T19:42:00.876Z,73.28
2022-08-08T19:47:06.476Z,74.32
2022-08-08T19:52:10.501Z,75.00
2022-08-08T19:57:15.889Z,75.66
2022-08-08T20:02:18.387Z,77.04
2022-08-08T20:08:29.112Z,76.78
2022-08-08T20:12:59.153Z,77.70
2022-08-08T20:18:15.395Z,77.58
2022-08-08T20:23:19.830Z,76.50
2022-08-08T20:28:32.286Z,76.27
2022-08-08T20:34:27.643Z,77.80
2022-08-08T20:38:57.757Z,78.72
2022-08-08T20:44:01.197Z,79.55
2022-08-08T20:49:05.157Z,80.58
2022-08-08T20:54:14.077Z,80.85
2022-08-08T20:59:18.713Z,81.23
2022-08-08T21:04:27.573Z,81.00
2022-08-08T21:09:31.827Z,80.88
2022-08-08T21:14:53.134Z,80.96
2022-08-08T21:19:58.910Z,81.60
2022-08-08T21:25:02.169Z,79.96
2022-08-08T21:30:10.887Z,82.24
2022-08-08T21:36:17.840Z,83.37
2022-08-08T21:40:55.026Z,82.61
2022-08-08T21:48:07.326Z,81.57
2022-08-08T21:54:17.089Z,83.76
2022-08-08T21:56:46.325Z,84.81
2022-08-08T22:01:52.487Z,85.38
2022-08-08T22:06:57.997Z,88.18
2022-08-08T22:12:09.446Z,87.71
2022-08-08T22:17:12.508Z,89.41
2022-08-08T22:22:16.021Z,90.50
2022-08-08T22:27:38.633Z,93.13
2022-08-08T22:32:42.533Z,95.54
2022-08-08T22:37:54.765Z,98.68
2022-08-08T22:42:57.557Z,99.38
2022-08-08T22:48:00.065Z,98.18
2022-08-08T22:54:31.102Z,100.00
2022-08-08T22:58:31.144Z,100.00
2022-08-08T23:03:53.535Z,100.00
2022-08-08T23:09:00.122Z,100.00
2022-08-08T23:14:02.928Z,100.00
2022-08-08T23:19:08.812Z,100.00
2022-08-08T23:24:11.462Z,100.00
2022-08-08T23:29:14.720Z,100.00
2022-08-08T23:34:19.498Z,100.00
2022-08-08T23:39:22.102Z,100.00
2022-08-08T23:44:24.634Z,100.00
2022-08-08T23:49:31.326Z,100.00
2022-08-08T23:54:42.872Z,100.00
